Time;durP1;ratioP1;P1;durP2;ratioP2;P2;SDS_P1;SDS_P2;PMS_P1;PMS_P2;Temp;Humidity;BMP_temperature;BMP_pressure;BME280_temperature;BME280_humidity;BME280_pressure;Samples;Min_cycle;Max_cycle;Signal;HPM_P1;HPM_P2
2021/12/10 00:03:54;;;;;;;10.87;5.07;;;;;;;6.22;60.57;96639.34;8328761;28;20243;-67
2021/12/10 00:07:57;;;;;;;9.87;5.00;;;;;;;6.25;60.83;96636.63;8294965;28;20328;-67
2021/12/10 00:12:06;;;;;;;8.13;4.70;;;;;;;6.30;60.86;96633.81;8313821;28;20237;-68
2021/12/10 00:16:09;;;;;;;9.97;4.90;;;;;;;6.28;60.70;96621.97;8313188;28;20220;-68
2021/12/10 00:20:15;;;;;;;7.63;4.53;;;;;;;6.32;60.71;96616.63;8313712;28;20237;-68
2021/12/10 00:24:23;;;;;;;9.10;4.67;;;;;;;6.28;60.90;96606.53;8313953;28;20248;-68
2021/12/10 00:28:30;;;;;;;7.70;4.33;;;;;;;6.33;60.83;96602.00;8314262;28;20241;-67
2021/12/10 00:32:36;;;;;;;8.23;4.20;;;;;;;6.40;60.57;96599.06;8314100;28;20241;-67
2021/12/10 00:36:41;;;;;;;10.17;4.47;;;;;;;6.41;60.80;96582.72;8314164;28;20562;-67
2021/12/10 00:40:45;;;;;;;9.50;4.57;;;;;;;6.44;60.36;96580.00;8344180;28;20236;-67
2021/12/10 00:44:48;;;;;;;9.10;4.37;;;;;;;6.43;60.37;96572.34;8330505;28;20260;-67
2021/12/10 00:48:51;;;;;;;8.27;4.60;;;;;;;6.22;61.13;96567.34;8319701;28;20232;-67
2021/12/10 00:52:55;;;;;;;8.53;4.70;;;;;;;6.35;61.06;96559.88;8319619;28;20232;-67
2021/12/10 00:56:58;;;;;;;9.87;4.20;;;;;;;6.25;61.09;96553.53;8319329;28;20556;-67
2021/12/10 01:01:04;;;;;;;11.23;4.57;;;;;;;6.32;60.99;96548.91;8319002;28;20437;-67
2021/12/10 01:05:08;;;;;;;8.07;4.37;;;;;;;6.20;61.20;96538.31;8318759;28;20240;-68
2021/12/10 01:09:18;;;;;;;8.17;4.43;;;;;;;6.33;60.65;96542.88;8319116;28;20236;-68
2021/12/10 01:13:28;;;;;;;9.13;4.67;;;;;;;6.20;61.21;96538.31;8318820;28;20240;-68
2021/12/10 01:26:55;;;;;;;8.17;4.30;;;;;;;6.31;61.39;96516.41;8318299;28;20423;-68
2021/12/10 01:30:58;;;;;;;7.37;4.30;;;;;;;6.26;61.34;96509.75;8318527;28;20435;-68
2021/12/10 01:35:01;;;;;;;7.60;4.50;;;;;;;6.28;61.28;96504.53;8318331;28;20528;-68
2021/12/10 01:39:07;;;;;;;8.97;4.50;;;;;;;6.21;61.20;96493.72;8317983;28;20434;-68
2021/12/10 01:43:22;;;;;;;8.37;4.63;;;;;;;5.86;62.62;96487.72;8293821;28;20241;-68
2021/12/10 01:47:30;;;;;;;8.23;4.07;;;;;;;6.15;61.34;96478.63;8287540;28;20202;-68
2021/12/10 01:51:36;;;;;;;8.73;4.40;;;;;;;6.23;61.25;96475.66;8286365;28;20244;-67
2021/12/10 01:55:42;;;;;;;5.93;3.80;;;;;;;6.29;61.23;96467.63;8285060;28;20237;-67
2021/12/10 01:59:48;;;;;;;8.27;4.10;;;;;;;6.28;60.89;96458.25;8284614;28;20261;-67
2021/12/10 02:03:52;;;;;;;7.30;3.87;;;;;;;6.40;60.29;96452.47;8284262;28;20240;-68
2021/12/10 02:07:55;;;;;;;5.73;3.80;;;;;;;6.40;60.61;96444.78;8284535;28;20234;-67
2021/12/10 02:11:58;;;;;;;6.83;3.70;;;;;;;6.37;60.63;96434.63;8284424;28;20226;-68
2021/12/10 02:16:03;;;;;;;8.60;4.13;;;;;;;6.30;60.50;96425.56;8284194;28;20260;-67
2021/12/10 02:20:09;;;;;;;6.87;4.13;;;;;;;6.37;60.39;96418.38;8283788;28;20244;-68
2021/12/10 02:24:15;;;;;;;6.10;3.73;;;;;;;6.48;60.22;96410.13;8283824;28;20237;-68
2021/12/10 02:28:19;;;;;;;7.37;3.97;;;;;;;6.34;60.52;96408.25;8284080;28;20426;-68
2021/12/10 02:32:23;;;;;;;11.30;4.57;;;;;;;6.45;60.22;96398.22;8284238;28;20241;-68
2021/12/10 02:36:26;;;;;;;7.17;3.53;;;;;;;6.26;60.35;96395.78;8283864;28;20256;-68
2021/12/10 02:40:32;;;;;;;6.17;3.40;;;;;;;6.38;60.32;96390.03;8283374;28;20233;-67
2021/12/10 02:44:35;;;;;;;6.27;3.23;;;;;;;6.39;60.39;96378.00;8283696;28;20416;-68
2021/12/10 02:48:38;;;;;;;7.87;3.37;;;;;;;6.42;60.01;96370.13;8283594;28;20230;-67
2021/12/10 02:52:41;;;;;;;7.37;3.40;;;;;;;6.45;60.22;96373.38;8283530;28;20554;-67
2021/12/10 02:56:46;;;;;;;7.20;3.27;;;;;;;6.33;60.17;96363.72;8283472;28;20241;-67
2021/12/10 03:00:55;;;;;;;10.07;3.43;;;;;;;6.20;59.74;96358.38;8283293;28;20233;-68
2021/12/10 03:04:58;;;;;;;6.13;3.40;;;;;;;6.44;59.91;96360.59;8283516;28;20532;-67
2021/12/10 03:09:02;;;;;;;9.37;3.23;;;;;;;6.31;60.32;96355.25;8283015;28;20248;-67
2021/12/10 03:13:09;;;;;;;6.93;3.40;;;;;;;6.29;59.93;96340.84;8283072;28;20233;-67
2021/12/10 03:17:14;;;;;;;9.23;3.43;;;;;;;6.55;59.91;96339.41;8315354;28;20386;-68
2021/12/10 03:21:18;;;;;;;7.73;3.43;;;;;;;6.40;59.61;96336.78;8315621;28;20236;-68
2021/12/10 03:25:21;;;;;;;7.73;3.07;;;;;;;6.34;59.73;96324.25;8315401;28;20244;-68
2021/12/10 03:29:28;;;;;;;8.97;3.40;;;;;;;6.18;60.79;96325.97;8315437;28;20229;-68
2021/12/10 03:33:31;;;;;;;6.97;3.20;;;;;;;6.41;59.84;96320.41;8314643;28;20232;-68
2021/12/10 03:37:35;;;;;;;6.50;3.03;;;;;;;6.17;60.76;96304.59;8314421;28;20236;-67
2021/12/10 03:41:38;;;;;;;8.70;3.13;;;;;;;5.76;62.00;96296.44;8314559;28;20231;-67
2021/12/10 03:45:45;;;;;;;7.73;3.50;;;;;;;5.63;62.17;96294.47;8314313;28;20232;-67
2021/12/10 03:49:48;;;;;;;7.63;3.10;;;;;;;5.95;61.13;96293.75;8314595;28;20236;-67
2021/12/10 03:53:52;;;;;;;9.70;3.47;;;;;;;5.61;62.35;96290.34;8314533;28;20239;-67
2021/12/10 03:57:57;;;;;;;7.97;3.40;;;;;;;6.00;61.39;96292.63;8314365;28;20245;-68
2021/12/10 04:02:01;;;;;;;8.40;3.60;;;;;;;6.09;60.26;96291.28;8314350;28;20233;-68
2021/12/10 04:06:07;;;;;;;7.57;3.50;;;;;;;6.14;61.20;96283.34;8314093;28;20244;-68
2021/12/10 04:10:12;;;;;;;9.37;3.87;;;;;;;6.29;60.87;96286.84;8314476;28;20239;-68
2021/12/10 04:14:15;;;;;;;7.33;3.53;;;;;;;6.02;61.14;96285.66;8314393;28;20241;-68
2021/12/10 04:18:19;;;;;;;6.97;3.17;;;;;;;6.18;60.73;96280.53;8314287;28;20239;-68
2021/12/10 04:22:26;;;;;;;12.10;3.50;;;;;;;6.05;60.66;96272.66;8318709;28;20232;-67
2021/12/10 04:26:29;;;;;;;5.20;3.10;;;;;;;5.95;60.68;96268.91;8320579;28;20232;-68
2021/12/10 04:30:37;;;;;;;8.43;3.53;;;;;;;5.87;61.05;96273.59;8320156;28;20244;-68
2021/12/10 04:34:42;;;;;;;6.93;3.33;;;;;;;5.65;61.33;96261.88;8319840;28;20272;-68
2021/12/10 04:38:46;;;;;;;8.17;2.80;;;;;;;5.79;61.40;96258.56;8319930;28;20264;-68
2021/12/10 04:42:50;;;;;;;7.27;3.27;;;;;;;5.91;60.73;96257.09;8319872;28;20266;-67
2021/12/10 04:46:53;;;;;;;7.23;3.20;;;;;;;6.02;60.54;96252.25;8319694;28;20550;-67
2021/12/10 04:50:58;;;;;;;9.17;3.10;;;;;;;6.01;60.19;96247.19;8319632;28;20394;-68
2021/12/10 04:55:01;;;;;;;9.40;3.30;;;;;;;6.20;59.81;96241.88;8319817;28;20570;-68
2021/12/10 04:59:08;;;;;;;7.20;3.33;;;;;;;5.92;60.76;96242.50;8319082;28;20244;-68
2021/12/10 05:03:12;;;;;;;8.17;3.87;;;;;;;5.59;60.97;96238.22;8318259;28;20232;-68
2021/12/10 05:07:18;;;;;;;8.07;3.77;;;;;;;5.59;61.02;96236.50;8319107;28;20237;-67
2021/12/10 05:11:21;;;;;;;10.17;3.90;;;;;;;5.71;61.10;96229.88;8318743;28;20243;-68
2021/12/10 05:15:26;;;;;;;8.27;3.70;;;;;;;5.87;60.71;96225.59;8318714;28;20248;-68
2021/12/10 05:19:29;;;;;;;10.57;3.80;;;;;;;5.40;61.40;96207.53;8318495;28;20243;-68
2021/12/10 05:23:34;;;;;;;9.50;4.07;;;;;;;5.16;62.62;96189.94;8318777;28;20233;-68
2021/12/10 05:27:38;;;;;;;9.00;4.60;;;;;;;5.56;61.13;96193.00;8318525;28;20519;-67
2021/12/10 05:31:43;;;;;;;9.50;4.83;;;;;;;5.24;62.30;96190.38;8317862;28;20233;-68
2021/12/10 05:35:50;;;;;;;9.20;4.93;;;;;;;5.69;60.57;96193.16;8318096;28;20252;-68
2021/12/10 05:39:54;;;;;;;10.90;5.70;;;;;;;5.44;61.04;96191.88;8317940;28;20232;-68
2021/12/10 05:43:58;;;;;;;11.00;6.30;;;;;;;5.20;61.61;96190.63;8317839;28;20240;-68
2021/12/10 05:48:00;;;;;;;12.30;6.60;;;;;;;5.08;62.07;96176.66;8317855;28;20241;-68
2021/12/10 05:52:05;;;;;;;11.80;7.00;;;;;;;5.19;61.73;96176.13;8317748;28;20236;-67
2021/12/10 05:56:10;;;;;;;10.77;7.30;;;;;;;5.09;61.74;96155.22;8318449;28;20432;-68
2021/12/10 06:00:16;;;;;;;13.23;7.60;;;;;;;5.13;61.55;96159.28;8316385;28;20420;-68
2021/12/10 06:04:23;;;;;;;16.87;10.87;;;;;;;4.89;61.75;96153.66;8313862;28;20431;-68
2021/12/10 06:08:26;;;;;;;16.97;11.70;;;;;;;4.54;63.52;96153.69;8293449;28;20250;-68
2021/12/10 06:12:31;;;;;;;15.50;10.83;;;;;;;4.20;65.21;96150.19;8317482;28;20538;-69
2021/12/10 06:16:34;;;;;;;18.73;11.57;;;;;;;4.33;63.39;96147.06;8317402;28;20237;-68
2021/12/10 06:20:40;;;;;;;16.40;11.40;;;;;;;4.51;64.02;96128.19;8316653;28;20224;-68
2021/12/10 06:24:43;;;;;;;15.57;10.50;;;;;;;4.39;64.45;96121.13;8315858;28;20232;-69
2021/12/10 06:28:48;;;;;;;14.70;10.73;;;;;;;5.07;61.40;96111.69;8316167;28;20539;-68
2021/12/10 06:32:54;;;;;;;16.53;10.83;;;;;;;4.73;62.89;96104.06;8316743;28;20228;-68
2021/12/10 06:36:57;;;;;;;16.13;10.67;;;;;;;4.97;61.89;96107.94;8316201;28;20233;-68
2021/12/10 06:41:00;;;;;;;16.60;10.97;;;;;;;5.11;60.88;96093.56;8348328;28;20231;-67
2021/12/10 06:45:08;;;;;;;14.90;10.20;;;;;;;5.25;61.06;96086.81;8347777;28;20241;-68
2021/12/10 06:49:11;;;;;;;16.87;10.93;;;;;;;4.72;61.86;96087.03;8348355;28;20515;-69
2021/12/10 06:53:15;;;;;;;13.63;10.40;;;;;;;5.07;61.30;96080.06;8348486;28;20236;-68
2021/12/10 06:57:18;;;;;;;16.03;12.07;;;;;;;4.68;61.62;96078.66;8348366;28;20247;-68
2021/12/10 07:01:25;;;;;;;15.00;11.47;;;;;;;5.05;60.93;96081.91;8338960;28;20239;-68
2021/12/10 07:05:28;;;;;;;20.13;12.70;;;;;;;4.58;62.21;96077.47;8315483;28;20237;-69
2021/12/10 07:09:31;;;;;;;17.97;12.20;;;;;;;4.96;61.50;96080.63;8315673;28;20319;-68
2021/12/10 07:13:36;;;;;;;21.13;14.23;;;;;;;4.73;61.40;96068.19;8315199;28;20229;-68
2021/12/10 07:17:44;;;;;;;23.13;15.00;;;;;;;4.39;62.26;96065.56;8315612;28;20241;-68
2021/12/10 07:21:46;;;;;;;15.70;12.77;;;;;;;4.44;62.38;96062.78;8315257;28;20229;-68
2021/12/10 07:25:50;;;;;;;16.40;12.27;;;;;;;4.56;62.56;96059.59;8314723;28;20423;-68
2021/12/10 07:29:53;;;;;;;20.03;13.97;;;;;;;5.29;60.11;96049.81;8314849;28;20563;-68
2021/12/10 07:33:57;;;;;;;20.80;15.40;;;;;;;5.08;60.33;96050.94;8315190;28;20232;-68
2021/12/10 07:38:01;;;;;;;18.40;14.10;;;;;;;4.89;61.40;96051.06;8314840;28;20242;-68
2021/12/10 07:42:04;;;;;;;17.70;14.40;;;;;;;4.56;62.12;96049.34;8314710;28;20232;-68
2021/12/10 07:46:07;;;;;;;17.93;14.57;;;;;;;4.93;60.96;96042.31;8314451;28;20408;-69
2021/12/10 07:50:15;;;;;;;20.30;15.20;;;;;;;4.95;60.87;96037.09;8315165;28;20393;-68
2021/12/10 07:54:18;;;;;;;17.80;14.40;;;;;;;4.85;61.03;96031.63;8316128;28;20323;-68
2021/12/10 07:58:26;;;;;;;19.43;14.87;;;;;;;4.58;61.93;96032.16;8321129;28;20237;-68
2021/12/10 08:02:29;;;;;;;21.63;14.90;;;;;;;4.52;61.75;96021.38;8321170;28;20248;-68
2021/12/10 08:06:36;;;;;;;17.37;14.53;;;;;;;4.61;61.60;96021.75;8320992;28;20415;-68
2021/12/10 08:10:41;;;;;;;18.20;15.03;;;;;;;4.61;61.33;96015.78;8320787;28;20232;-68
2021/12/10 08:14:45;;;;;;;18.50;15.97;;;;;;;4.28;61.77;96007.19;8320433;28;20228;-68
2021/12/10 08:18:49;;;;;;;21.67;17.13;;;;;;;3.91;64.02;96006.44;8288068;28;20236;-68
2021/12/10 08:22:54;;;;;;;17.43;14.77;;;;;;;3.74;63.57;95998.75;8288062;28;20233;-69
2021/12/10 08:26:57;;;;;;;17.47;14.47;;;;;;;3.78;63.35;95999.44;8287981;28;20237;-68
2021/12/10 08:31:01;;;;;;;16.50;13.37;;;;;;;4.03;63.31;95997.31;8287879;28;20256;-68
2021/12/10 08:35:07;;;;;;;16.77;14.53;;;;;;;3.83;63.37;96002.59;8287809;28;20240;-68
2021/12/10 08:39:13;;;;;;;17.00;14.17;;;;;;;3.68;63.89;95999.06;8271618;28;20240;-68
2021/12/10 08:43:16;;;;;;;16.30;12.73;;;;;;;3.63;63.43;95994.13;8287624;28;20546;-68
2021/12/10 08:47:19;;;;;;;15.73;12.77;;;;;;;3.76;62.74;95984.13;8287432;28;20241;-67
2021/12/10 08:51:27;;;;;;;17.37;12.17;;;;;;;3.91;62.46;95974.88;8287511;28;20303;-67
2021/12/10 08:55:33;;;;;;;15.60;11.53;;;;;;;4.13;61.27;95982.31;8287478;28;20408;-67
2021/12/10 08:59:38;;;;;;;14.50;11.30;;;;;;;3.99;61.56;95977.88;8287147;28;20237;-67
2021/12/10 09:03:43;;;;;;;17.77;12.60;;;;;;;3.99;62.02;95966.81;8315247;28;20228;-67
2021/12/10 09:07:46;;;;;;;21.17;12.20;;;;;;;4.16;62.19;95964.22;8318837;28;20232;-68
2021/12/10 09:11:52;;;;;;;16.60;12.37;;;;;;;3.90;62.01;95963.81;8319572;28;20228;-68
2021/12/10 09:15:59;;;;;;;18.17;12.27;;;;;;;3.85;63.15;95957.28;8319666;28;20244;-68
2021/12/10 09:20:07;;;;;;;18.37;12.60;;;;;;;3.65;63.17;95958.22;8319196;28;20229;-68
2021/12/10 09:24:13;;;;;;;16.70;12.10;;;;;;;4.20;61.81;95952.91;8311047;28;20392;-68
2021/12/10 09:28:17;;;;;;;16.37;11.37;;;;;;;4.21;61.17;95957.16;8318613;28;20236;-68
2021/12/10 09:32:22;;;;;;;15.57;12.33;;;;;;;4.42;60.48;95944.16;8318460;28;20303;-68
2021/12/10 09:36:27;;;;;;;16.57;11.93;;;;;;;4.66;60.55;95945.41;8318316;28;20241;-68
2021/12/10 09:40:33;;;;;;;13.97;11.13;;;;;;;5.37;63.15;95926.19;8317473;28;20243;-73
2021/12/10 09:44:38;;;;;;;16.13;12.87;;;;;;;5.66;57.67;95911.69;8317738;28;20229;-73
2021/12/10 09:48:43;;;;;;;14.60;12.00;;;;;;;5.02;60.03;95893.03;8316738;28;20243;-81
2021/12/10 09:52:46;;;;;;;13.80;11.50;;;;;;;5.17;59.71;95882.81;8317998;28;20515;-79
2021/12/10 09:56:52;;;;;;;16.70;12.87;;;;;;;5.00;60.68;95876.88;8317808;28;20235;-81
2021/12/10 10:01:00;;;;;;;15.37;13.63;;;;;;;4.44;62.00;95881.63;8316942;28;20237;-78
2021/12/10 10:05:05;;;;;;;17.10;13.53;;;;;;;4.84;61.06;95869.22;8314756;28;20550;-80
2021/12/10 10:09:11;;;;;;;15.90;12.07;;;;;;;4.99;61.19;95853.88;8317114;28;20225;-83
2021/12/10 10:13:26;;;;;;;15.40;12.07;;;;;;;4.98;60.30;95853.06;8334590;28;20248;-80
2021/12/10 10:17:30;;;;;;;16.70;11.33;;;;;;;5.09;60.03;95843.03;8349831;28;20239;-80
2021/12/10 10:21:36;;;;;;;16.77;10.97;;;;;;;4.53;61.30;95852.09;8350287;28;20227;-78
2021/12/10 10:25:43;;;;;;;14.80;10.57;;;;;;;4.92;61.15;95845.72;8349913;28;20232;-80
2021/12/10 10:29:52;;;;;;;14.43;10.67;;;;;;;5.10;58.96;95823.31;8350134;28;20232;-80
2021/12/10 10:33:59;;;;;;;14.67;10.77;;;;;;;5.82;57.78;95828.59;8349306;28;20228;-80
2021/12/10 10:38:03;;;;;;;14.43;11.67;;;;;;;5.44;58.63;95817.06;8349016;28;20263;-78
2021/12/10 10:42:11;;;;;;;15.80;12.43;;;;;;;5.57;57.65;95822.34;8348450;28;20545;-74
2021/12/10 10:46:30;;;;;;;19.50;13.13;;;;;;;5.46;58.16;95817.00;8348626;28;20290;-83
2021/12/10 10:50:38;;;;;;;14.47;11.60;;;;;;;5.53;58.55;95823.44;8349047;28;20270;-78
2021/12/10 10:54:41;;;;;;;13.20;10.13;;;;;;;6.06;56.45;95826.34;8348299;28;20234;-79
2021/12/10 10:58:47;;;;;;;13.80;9.43;;;;;;;5.72;55.88;95835.19;8348596;28;20249;-81
2021/12/10 11:02:52;;;;;;;13.37;10.33;;;;;;;5.58;55.45;95835.97;8327144;28;20235;-81
2021/12/10 11:07:06;;;;;;;11.53;8.73;;;;;;;6.03;55.00;95834.22;8316019;28;20260;-85
2021/12/10 11:11:14;;;;;;;13.03;8.67;;;;;;;6.12;54.11;95838.81;8315045;28;20295;-83
2021/12/10 11:15:18;;;;;;;11.10;7.93;;;;;;;5.60;55.72;95829.88;8315226;28;20424;-82
2021/12/10 11:19:22;;;;;;;12.60;8.30;;;;;;;6.25;54.42;95838.91;8283184;28;20422;-82
2021/12/10 11:23:28;;;;;;;10.43;7.60;;;;;;;5.67;54.94;95827.75;8315265;28;20241;-80
2021/12/10 11:27:32;;;;;;;18.50;12.80;;;;;;;5.76;55.60;95819.50;8314733;28;20238;-79
2021/12/10 11:31:36;;;;;;;14.57;8.57;;;;;;;5.67;54.94;95815.75;8314695;28;20233;-81
2021/12/10 11:35:42;;;;;;;11.90;8.37;;;;;;;6.22;54.10;95821.09;8315119;28;20540;-79
2021/12/10 11:39:50;;;;;;;8.80;6.40;;;;;;;6.31;53.63;95815.38;8294687;28;20431;-81
2021/12/10 11:44:07;;;;;;;8.83;6.20;;;;;;;6.52;52.66;95809.84;8282086;28;20260;-82
2021/12/10 11:48:13;;;;;;;11.70;7.23;;;;;;;6.14;53.42;95810.44;8274488;28;20229;-74
2021/12/10 11:52:18;;;;;;;12.43;7.10;;;;;;;6.26;54.12;95814.81;8282437;28;20237;-74
2021/12/10 11:56:26;;;;;;;11.27;7.13;;;;;;;6.13;53.67;95803.66;8282059;28;20238;-74
2021/12/10 12:00:32;;;;;;;12.27;7.70;;;;;;;6.13;54.81;95803.66;8281606;28;20241;-75
2021/12/10 12:04:41;;;;;;;12.57;7.20;;;;;;;5.90;54.96;95789.59;8257693;28;20233;-75
2021/12/10 12:08:44;;;;;;;10.23;6.70;;;;;;;5.83;55.28;95789.16;8281969;28;20425;-78
2021/12/10 12:12:50;;;;;;;11.97;6.13;;;;;;;6.15;54.34;95782.09;8282000;28;20540;-76
2021/12/10 12:16:54;;;;;;;11.63;6.57;;;;;;;6.25;54.47;95780.59;8282000;28;20229;-79
2021/12/10 12:20:59;;;;;;;10.63;7.00;;;;;;;6.24;54.72;95790.97;8282182;28;20234;-74
2021/12/10 12:25:09;;;;;;;10.33;6.40;;;;;;;6.42;53.94;95791.59;8281851;28;20229;-77
2021/12/10 12:29:15;;;;;;;10.33;6.43;;;;;;;5.60;55.13;95793.09;8281161;28;20253;-76
2021/12/10 12:33:20;;;;;;;11.30;6.97;;;;;;;6.03;54.95;95782.81;8264820;28;20230;-74
2021/12/10 12:37:24;;;;;;;7.47;5.37;;;;;;;6.09;54.36;95772.16;8252065;28;20249;-76
2021/12/10 12:41:48;;;;;;;9.00;5.33;;;;;;;5.55;55.76;95762.53;8315688;28;20228;-77
2021/12/10 12:46:04;;;;;;;8.43;5.53;;;;;;;5.19;56.58;95757.84;8321017;28;20312;-76
2021/12/10 12:50:10;;;;;;;10.77;5.30;;;;;;;5.45;56.23;95771.72;8317116;28;20224;-74
2021/12/10 12:54:14;;;;;;;9.67;5.50;;;;;;;4.94;57.99;95769.50;8318825;28;20291;-71
2021/12/10 12:58:25;;;;;;;30.73;24.07;;;;;;;5.41;56.27;95770.25;8340687;28;20524;-70
2021/12/10 13:02:51;;;;;;;10.07;4.90;;;;;;;5.12;56.04;95772.75;8330315;28;20232;-80
2021/12/10 13:06:58;;;;;;;8.73;5.17;;;;;;;5.28;55.90;95772.69;8311248;28;20540;-76
2021/12/10 13:11:08;;;;;;;10.17;5.20;;;;;;;5.81;55.50;95763.56;8302393;28;20443;-75
2021/12/10 13:15:14;;;;;;;10.17;4.80;;;;;;;5.46;55.09;95778.47;8301861;28;20238;-75
2021/12/10 13:19:21;;;;;;;7.77;4.60;;;;;;;5.77;54.25;95769.81;8302620;28;20240;-76
2021/12/10 13:23:32;;;;;;;11.33;5.27;;;;;;;5.19;55.64;95763.78;8271966;28;20301;-66
2021/12/10 13:27:37;;;;;;;12.90;6.73;;;;;;;5.06;56.45;95753.44;8301977;28;20259;-66
2021/12/10 13:31:46;;;;;;;12.37;5.53;;;;;;;5.32;55.79;95756.19;8302426;28;20555;-66
2021/12/10 13:35:51;;;;;;;8.33;5.13;;;;;;;5.30;56.18;95760.59;8306208;28;20228;-66
2021/12/10 13:39:58;;;;;;;9.77;6.43;;;;;;;5.29;56.35;95761.50;8350948;28;20259;-66
2021/12/10 13:44:08;;;;;;;11.03;5.10;;;;;;;4.81;57.56;95753.97;8345115;28;20229;-67
2021/12/10 13:48:14;;;;;;;13.43;10.03;;;;;;;5.68;55.86;95752.38;8317496;28;20233;-68
2021/12/10 13:52:38;;;;;;;16.77;9.43;;;;;;;5.72;55.41;95746.13;8318018;28;20536;-66
2021/12/10 13:56:49;;;;;;;14.33;9.37;;;;;;;5.76;55.17;95739.06;8329275;28;20235;-66
2021/12/10 14:00:57;;;;;;;18.23;10.90;;;;;;;5.37;56.19;95741.38;8345024;28;20232;-66
2021/12/10 14:05:17;;;;;;;20.20;11.23;;;;;;;5.04;57.03;95742.41;8317636;28;20236;-67
2021/12/10 14:09:36;;;;;;;46.57;28.43;;;;;;;5.28;56.90;95744.47;8294552;28;20237;-66
2021/12/10 14:13:39;;;;;;;18.70;10.83;;;;;;;4.94;57.43;95750.72;8317624;28;20229;-66
2021/12/10 14:17:45;;;;;;;10.80;6.03;;;;;;;4.90;57.05;95758.59;8317267;28;20240;-66
2021/12/10 14:22:09;;;;;;;10.10;5.47;;;;;;;5.20;56.23;95764.63;8316081;28;20233;-67
2021/12/10 14:26:36;;;;;;;10.57;5.80;;;;;;;5.59;55.55;95770.88;8316479;28;20243;-66
2021/12/10 14:31:00;;;;;;;12.30;6.10;;;;;;;5.74;55.53;95776.84;8315844;28;20225;-65
2021/12/10 14:35:19;;;;;;;15.27;7.27;;;;;;;5.44;55.77;95772.63;8313790;28;20563;-66
2021/12/10 14:39:23;;;;;;;16.23;8.97;;;;;;;5.37;55.66;95777.31;8315780;28;20236;-66
2021/12/10 14:43:50;;;;;;;13.20;7.70;;;;;;;4.94;57.75;95782.31;8313284;28;20228;-65
2021/12/10 14:48:08;;;;;;;16.07;9.40;;;;;;;5.65;55.39;95784.22;8316250;28;20244;-65
2021/12/10 14:52:33;;;;;;;12.50;6.33;;;;;;;5.53;55.75;95786.66;8315721;28;20555;-66
2021/12/10 14:57:01;;;;;;;9.27;5.20;;;;;;;5.39;55.61;95788.31;8315909;28;20231;-65
2021/12/10 15:01:26;;;;;;;12.80;6.37;;;;;;;5.28;55.31;95794.03;8324928;28;20235;-66
2021/12/10 15:05:57;;;;;;;12.13;5.33;;;;;;;5.61;54.45;95787.03;8327308;28;20439;-66
2021/12/10 15:10:28;;;;;;;9.33;5.00;;;;;;;4.80;56.74;95785.69;8339758;28;20232;-66
2021/12/10 15:14:57;;;;;;;9.57;5.23;;;;;;;5.35;55.37;95803.94;8319055;28;20229;-66
2021/12/10 15:19:14;;;;;;;11.13;5.87;;;;;;;5.48;54.79;95808.31;8315953;28;20233;-74
2021/12/10 15:23:17;;;;;;;9.77;4.30;;;;;;;4.82;56.79;95796.66;8315284;28;20228;-74
2021/12/10 15:27:38;;;;;;;8.87;5.30;;;;;;;5.13;56.15;95807.75;8284861;28;20233;-75
2021/12/10 15:31:41;;;;;;;8.27;4.40;;;;;;;5.31;56.14;95805.88;8315138;28;20302;-75
2021/12/10 15:35:48;;;;;;;10.63;5.13;;;;;;;5.39;55.45;95811.41;8315350;28;20233;-76
2021/12/10 15:39:55;;;;;;;15.33;5.60;;;;;;;5.29;56.21;95808.53;8315294;28;20236;-79
2021/12/10 15:44:02;;;;;;;20.30;13.20;;;;;;;5.00;56.54;95810.19;8329500;28;20233;-83
2021/12/10 15:48:06;;;;;;;10.97;6.60;;;;;;;4.61;57.55;95818.38;8306748;28;20228;-71
2021/12/10 15:52:15;;;;;;;12.27;6.20;;;;;;;4.84;57.45;95820.50;8314349;28;20239;-80
2021/12/10 15:56:22;;;;;;;12.27;5.53;;;;;;;5.03;57.38;95814.34;8326296;28;20236;-80
2021/12/10 16:00:26;;;;;;;12.70;7.13;;;;;;;5.15;57.33;95820.50;8333791;28;20247;-78
2021/12/10 16:04:46;;;;;;;12.83;7.63;;;;;;;5.29;56.60;95831.66;8326625;28;20579;-78
2021/12/10 16:08:53;;;;;;;12.60;7.80;;;;;;;5.18;56.85;95834.00;8314999;28;20228;-81
2021/12/10 16:12:58;;;;;;;15.77;11.73;;;;;;;5.16;56.79;95843.53;8313235;28;20271;-76
2021/12/10 16:17:02;;;;;;;46.57;29.80;;;;;;;5.38;56.81;95845.66;8319733;28;20225;-79
2021/12/10 16:21:11;;;;;;;10.47;7.13;;;;;;;4.97;57.41;95848.84;8319779;28;20288;-80
2021/12/10 16:25:17;;;;;;;11.67;7.10;;;;;;;4.95;57.98;95857.53;8317440;28;20595;-83
2021/12/10 16:29:24;;;;;;;10.07;6.23;;;;;;;5.48;55.99;95854.53;8319648;28;20228;-81
2021/12/10 16:33:32;;;;;;;10.23;7.07;;;;;;;4.74;58.10;95864.66;8323158;28;20535;-80
2021/12/10 16:37:38;;;;;;;11.03;6.50;;;;;;;4.94;57.88;95869.53;8338662;28;20232;-79
2021/12/10 16:41:45;;;;;;;12.57;6.00;;;;;;;5.02;57.08;95879.38;8352951;28;20535;-78
2021/12/10 16:45:52;;;;;;;11.13;6.10;;;;;;;5.32;56.72;95881.16;8331880;28;20233;-79
2021/12/10 16:49:55;;;;;;;9.97;6.87;;;;;;;5.12;56.65;95884.81;8319924;28;20237;-76
2021/12/10 16:54:05;;;;;;;11.33;6.67;;;;;;;5.09;56.16;95883.25;8319960;28;20407;-76
2021/12/10 16:58:16;;;;;;;12.47;8.00;;;;;;;5.05;56.86;95884.34;8319182;28;20225;-77
2021/12/10 17:02:21;;;;;;;15.57;10.00;;;;;;;5.24;56.52;95886.72;8319577;28;20439;-76
2021/12/10 17:06:26;;;;;;;15.67;12.63;;;;;;;5.15;56.64;95892.34;8319526;28;20292;-77
2021/12/10 17:10:34;;;;;;;10.23;7.70;;;;;;;5.34;56.08;95899.84;8319612;28;20262;-78
2021/12/10 17:14:42;;;;;;;14.03;8.50;;;;;;;5.01;57.43;95898.25;8319242;28;20232;-78
2021/12/10 17:18:47;;;;;;;11.93;6.70;;;;;;;5.05;56.99;95903.13;8318935;28;20232;-77
2021/12/10 17:22:50;;;;;;;10.27;7.10;;;;;;;4.70;57.77;95908.44;8318877;28;20228;-76
2021/12/10 17:26:57;;;;;;;10.47;6.57;;;;;;;4.90;57.10;95909.09;8318034;28;20531;-76
2021/12/10 17:31:04;;;;;;;13.03;6.60;;;;;;;4.71;58.40;95916.97;8318551;28;20232;-76
2021/12/10 17:35:14;;;;;;;11.27;6.33;;;;;;;4.89;57.76;95928.81;8317925;28;20229;-75
2021/12/10 17:39:21;;;;;;;8.90;5.80;;;;;;;4.87;58.08;95929.78;8301794;28;20571;-73
2021/12/10 17:43:28;;;;;;;9.90;6.50;;;;;;;4.94;57.57;95936.22;8285297;28;20267;-80
2021/12/10 17:47:35;;;;;;;8.50;6.23;;;;;;;5.13;57.34;95941.19;8285419;28;20233;-75
2021/12/10 17:51:41;;;;;;;10.77;6.27;;;;;;;5.07;57.68;95951.78;8274595;28;20548;-73
2021/12/10 17:55:48;;;;;;;10.87;6.47;;;;;;;5.04;58.01;95950.19;8254682;28;20230;-73
2021/12/10 17:59:52;;;;;;;10.07;6.27;;;;;;;5.16;58.08;95950.44;8254450;28;20520;-77
2021/12/10 18:03:58;;;;;;;9.60;6.30;;;;;;;5.11;58.76;95955.84;8257511;28;20551;-77
2021/12/10 18:08:04;;;;;;;9.43;6.47;;;;;;;4.76;60.17;95975.69;8284801;28;20241;-77
2021/12/10 18:12:09;;;;;;;10.23;6.77;;;;;;;4.78;60.71;95973.84;8300256;28;20229;-75
2021/12/10 18:16:15;;;;;;;9.37;7.40;;;;;;;5.24;59.10;95971.41;8284581;28;20243;-75
2021/12/10 18:20:25;;;;;;;9.90;7.23;;;;;;;5.22;59.80;95980.94;8270679;28;20242;-72
2021/12/10 18:24:30;;;;;;;11.10;6.77;;;;;;;5.28;59.63;95983.97;8252294;28;20238;-72
2021/12/10 18:28:37;;;;;;;9.77;7.33;;;;;;;5.18;59.65;95989.69;8244320;28;20245;-69
2021/12/10 18:32:43;;;;;;;12.03;8.13;;;;;;;4.95;61.04;95985.78;8260474;28;20416;-73
2021/12/10 18:36:49;;;;;;;12.10;8.10;;;;;;;4.95;60.77;95993.47;8269578;28;20237;-72
2021/12/10 18:40:56;;;;;;;11.40;7.67;;;;;;;4.99;61.54;95993.25;8316183;28;20244;-72
2021/12/10 18:45:04;;;;;;;12.63;8.93;;;;;;;4.85;61.95;95995.72;8317092;28;20232;-73
2021/12/10 18:49:07;;;;;;;19.07;13.90;;;;;;;4.88;61.55;95993.81;8332196;28;20243;-73
2021/12/10 18:53:17;;;;;;;27.90;19.17;;;;;;;4.90;61.27;96009.94;8316400;28;20235;-71
2021/12/10 18:57:23;;;;;;;16.17;11.80;;;;;;;6.40;62.52;96015.38;8313045;28;20221;-74
2021/12/10 19:01:29;;;;;;;12.50;8.93;;;;;;;6.98;56.32;96016.19;8317000;28;20431;-72
2021/12/10 19:05:35;;;;;;;10.63;8.77;;;;;;;5.99;58.29;96017.75;8325420;28;20236;-75
2021/12/10 19:09:43;;;;;;;15.13;9.93;;;;;;;5.63;59.01;96024.00;8325496;28;20232;-71
2021/12/10 19:13:49;;;;;;;11.17;9.57;;;;;;;5.71;59.50;96036.44;8315485;28;20236;-72
2021/12/10 19:17:56;;;;;;;11.40;9.47;;;;;;;5.13;60.98;96035.31;8347691;28;20227;-72
2021/12/10 19:22:01;;;;;;;12.83;9.77;;;;;;;5.24;60.85;96041.50;8348149;28;20242;-72
2021/12/10 19:26:08;;;;;;;13.40;10.00;;;;;;;4.86;62.18;96049.50;8318795;28;20423;-72
2021/12/10 19:30:16;;;;;;;14.07;9.67;;;;;;;4.94;61.93;96048.28;8307623;28;20233;-71
2021/12/10 19:34:23;;;;;;;11.93;9.77;;;;;;;4.85;62.66;96058.09;8315282;28;20229;-72